Wellsburg, Kentucky
Current Conditions -  °F | °C
As of 5:55 AM on Friday 31 Oct 2014 (Local Time) from KFGX Reporting Station
Drizzle Drizzle  
Wind Chill: 40°   Ceiling: 5500
Heat Index: 40°   Visibility: 7mi
Dew Point: 39°   Wind: 0mph
Humidity: 95%   Direction: NA
Pressure: 30"   Gusts: NA
Location:  38.7475°N, 84.1516°W
Report Text: KFGX 310955Z AUTO 00000KT 7SM DZ OVC055 05/04 A3000 RMK AO2 T00450038
Loading
Personal Weather Stations






























Interactive Weather Map
Tropical Storm Tracking
New forecast layout! Learn more

10-Day Weather Forecast

Advertisements
Track Severe Weather on mobile